Time;durP1;ratioP1;P1;durP2;ratioP2;P2;SDS_P1;SDS_P2;PMS_P1;PMS_P2;Temp;Humidity;BMP_temperature;BMP_pressure;BME280_temperature;BME280_humidity;BME280_pressure;Samples;Min_cycle;Max_cycle;Signal;HPM_P1;HPM_P2
2023/12/18 00:01:06;;;;;;;11.88;4.03;;;4.80;99.90;;;;;;4937818;28;90752;-78
2023/12/18 00:03:31;;;;;;;11.18;4.25;;;4.70;99.90;;;;;;4939198;28;87497;-82
2023/12/18 00:05:57;;;;;;;15.35;4.10;;;4.60;99.90;;;;;;4953629;28;87338;-79
2023/12/18 00:08:23;;;;;;;12.63;4.53;;;4.60;99.90;;;;;;4953075;28;89120;-77
2023/12/18 00:10:48;;;;;;;14.10;4.65;;;4.40;99.90;;;;;;4954196;28;88966;-80
2023/12/18 00:13:14;;;;;;;12.23;4.00;;;4.40;99.90;;;;;;4955007;28;87123;-81
2023/12/18 00:15:40;;;;;;;8.73;4.63;;;4.40;99.90;;;;;;4955385;28;87203;-77
2023/12/18 00:18:05;;;;;;;10.18;4.07;;;4.40;99.90;;;;;;4936672;28;91950;-79
2023/12/18 00:20:31;;;;;;;10.95;4.13;;;4.30;99.90;;;;;;4955466;28;87106;-77
2023/12/18 00:22:58;;;;;;;12.80;4.13;;;4.30;99.90;;;;;;4955930;28;87724;-79
2023/12/18 00:25:23;;;;;;;8.65;4.18;;;4.30;99.90;;;;;;4919578;28;90200;-78
2023/12/18 00:27:49;;;;;;;14.15;4.30;;;4.20;99.90;;;;;;4954412;28;87716;-80
2023/12/18 00:30:15;;;;;;;12.77;5.22;;;4.20;99.90;;;;;;4954554;28;88637;-81
2023/12/18 00:32:41;;;;;;;13.95;4.75;;;4.20;99.90;;;;;;4937037;28;88300;-80
2023/12/18 00:35:07;;;;;;;10.73;3.85;;;4.10;99.90;;;;;;4954845;28;87805;-86
2023/12/18 00:37:32;;;;;;;10.48;3.70;;;4.00;99.90;;;;;;4953592;28;88016;-81
2023/12/18 00:39:58;;;;;;;17.38;5.00;;;4.00;99.90;;;;;;4954495;28;87902;-78
2023/12/18 00:42:24;;;;;;;14.15;5.30;;;3.90;99.90;;;;;;4956688;28;88064;-78
2023/12/18 00:44:50;;;;;;;16.63;6.07;;;3.90;99.90;;;;;;4953909;28;87895;-78
2023/12/18 00:47:15;;;;;;;9.88;4.13;;;3.80;99.90;;;;;;4954218;28;87936;-79
2023/12/18 00:49:41;;;;;;;13.07;4.65;;;3.90;99.90;;;;;;4937557;28;86824;-79
2023/12/18 00:52:08;;;;;;;17.58;5.30;;;3.90;99.90;;;;;;4936809;28;87556;-79
2023/12/18 00:54:34;;;;;;;10.50;4.80;;;3.90;99.90;;;;;;4954744;28;87600;-79
2023/12/18 00:56:59;;;;;;;15.15;4.95;;;3.90;99.90;;;;;;4953469;28;89762;-78
2023/12/18 00:59:25;;;;;;;13.23;5.40;;;3.90;99.90;;;;;;4952894;28;89418;-79
2023/12/18 01:01:50;;;;;;;14.20;4.65;;;3.90;99.90;;;;;;4936749;28;87659;-81
2023/12/18 01:04:16;;;;;;;12.25;5.82;;;3.90;99.90;;;;;;4936373;28;91176;-79
2023/12/18 01:06:42;;;;;;;15.25;5.93;;;3.90;99.90;;;;;;4953502;28;88592;-77
2023/12/18 01:09:08;;;;;;;16.05;4.97;;;3.90;99.90;;;;;;4935997;28;91710;-80
2023/12/18 01:11:34;;;;;;;15.70;5.10;;;3.80;99.90;;;;;;4936375;28;87515;-75
2023/12/18 01:14:00;;;;;;;12.18;5.35;;;3.80;99.90;;;;;;4953902;28;87170;-77
2023/12/18 01:16:26;;;;;;;13.60;5.07;;;3.80;99.90;;;;;;4936085;28;90292;-79
2023/12/18 01:18:52;;;;;;;10.70;5.07;;;3.80;99.90;;;;;;4935110;28;90962;-79
2023/12/18 01:21:17;;;;;;;11.18;5.18;;;3.80;99.90;;;;;;4936895;28;88336;-76
2023/12/18 01:23:43;;;;;;;12.38;5.10;;;3.80;99.90;;;;;;4954115;28;87161;-75
2023/12/18 01:26:09;;;;;;;8.77;4.97;;;3.90;99.90;;;;;;4953491;28;87866;-79
2023/12/18 01:28:34;;;;;;;13.10;5.07;;;3.90;99.90;;;;;;4952638;28;90171;-78
2023/12/18 01:31:00;;;;;;;11.18;5.32;;;4.00;99.90;;;;;;4935720;28;87206;-81
2023/12/18 01:33:26;;;;;;;16.13;6.10;;;4.00;99.90;;;;;;4954906;28;87183;-79
2023/12/18 01:35:51;;;;;;;14.32;5.38;;;4.10;99.90;;;;;;4953104;28;88965;-79
2023/12/18 01:38:17;;;;;;;15.32;5.32;;;4.10;99.90;;;;;;4952513;28;88544;-82
2023/12/18 01:40:44;;;;;;;13.50;5.10;;;4.10;99.90;;;;;;4955072;28;87452;-76
2023/12/18 01:43:26;;;;;;;15.15;5.20;;;4.20;99.90;;;;;;4936568;28;90754;-78
2023/12/18 01:45:59;;;;;;;12.02;5.50;;;4.20;99.90;;;;;;4953314;28;89645;-75
2023/12/18 01:48:26;;;;;;;12.48;5.20;;;4.30;99.90;;;;;;4936772;28;92676;-77
2023/12/18 01:50:54;;;;;;;17.60;6.07;;;4.30;99.90;;;;;;4934579;28;87178;-78
2023/12/18 01:53:22;;;;;;;16.58;6.15;;;4.40;99.90;;;;;;4952027;28;88130;-79
2023/12/18 01:55:48;;;;;;;14.88;5.68;;;4.40;99.90;;;;;;4953166;28;88327;-78
2023/12/18 01:58:14;;;;;;;12.07;6.03;;;4.50;99.90;;;;;;4936477;28;90192;-76
2023/12/18 02:00:43;;;;;;;15.50;5.75;;;4.50;99.90;;;;;;4936161;28;87705;-76
2023/12/18 02:03:12;;;;;;;12.45;5.35;;;4.50;99.90;;;;;;4935222;28;91020;-79
2023/12/18 02:05:39;;;;;;;11.82;6.28;;;4.50;99.90;;;;;;4935147;28;91320;-75
2023/12/18 02:08:07;;;;;;;12.80;6.18;;;4.50;99.90;;;;;;4952445;28;88312;-81
2023/12/18 02:10:33;;;;;;;15.80;6.25;;;4.50;99.90;;;;;;4934718;28;88488;-76
2023/12/18 02:12:59;;;;;;;11.40;6.03;;;4.50;99.90;;;;;;4952572;28;87533;-77
2023/12/18 02:15:26;;;;;;;15.02;5.93;;;4.50;99.90;;;;;;4936458;28;91920;-80
2023/12/18 02:17:52;;;;;;;10.93;5.63;;;4.50;99.90;;;;;;4952448;28;87261;-77
2023/12/18 02:20:17;;;;;;;12.60;5.47;;;4.60;99.90;;;;;;4934757;28;87478;-78
2023/12/18 02:22:46;;;;;;;15.68;5.55;;;4.60;99.90;;;;;;4952351;28;87183;-79
2023/12/18 02:25:13;;;;;;;11.90;5.32;;;4.50;99.90;;;;;;4934490;28;91619;-75
2023/12/18 02:27:39;;;;;;;13.68;6.80;;;4.50;99.90;;;;;;4953424;28;87571;-77
2023/12/18 02:30:05;;;;;;;11.00;5.53;;;4.50;99.90;;;;;;4952000;28;87635;-81
2023/12/18 02:32:30;;;;;;;12.15;6.32;;;4.40;99.90;;;;;;4934852;28;90638;-78
2023/12/18 02:34:56;;;;;;;12.13;5.95;;;4.40;99.90;;;;;;4952864;28;89110;-80
2023/12/18 02:37:23;;;;;;;13.27;5.63;;;4.30;99.90;;;;;;4934925;28;90587;-76
2023/12/18 02:39:49;;;;;;;14.43;5.53;;;4.30;99.90;;;;;;4935378;28;87389;-80
2023/12/18 02:42:14;;;;;;;11.65;5.55;;;4.20;99.90;;;;;;4934527;28;90854;-79
2023/12/18 02:44:40;;;;;;;9.70;4.65;;;4.20;99.90;;;;;;4951985;28;88249;-76
2023/12/18 02:47:06;;;;;;;11.70;5.20;;;4.20;99.90;;;;;;4935383;28;91167;-78
2023/12/18 02:49:32;;;;;;;12.13;5.65;;;4.10;99.90;;;;;;4954006;28;87404;-77
2023/12/18 02:51:57;;;;;;;11.75;5.32;;;4.10;99.90;;;;;;4953794;28;86795;-76
2023/12/18 02:54:23;;;;;;;11.45;5.80;;;4.00;99.90;;;;;;4953617;28;88764;-80
2023/12/18 02:56:50;;;;;;;11.07;5.65;;;4.00;99.90;;;;;;4934444;28;91420;-82
2023/12/18 02:59:16;;;;;;;14.35;5.20;;;4.00;99.90;;;;;;4935246;28;88806;-84
2023/12/18 03:01:41;;;;;;;12.48;5.03;;;3.90;99.90;;;;;;4935695;28;90729;-83
2023/12/18 03:04:07;;;;;;;9.13;5.03;;;3.90;99.90;;;;;;4952569;28;88498;-79
2023/12/18 03:06:33;;;;;;;13.85;6.28;;;3.80;99.90;;;;;;4934862;28;90547;-75
2023/12/18 03:08:58;;;;;;;10.90;5.78;;;3.80;99.90;;;;;;4934836;28;88076;-76
2023/12/18 03:11:24;;;;;;;12.30;5.22;;;3.80;99.90;;;;;;4934336;28;90939;-77
2023/12/18 03:13:49;;;;;;;12.45;5.70;;;3.70;99.90;;;;;;4952215;28;88122;-76
2023/12/18 03:16:15;;;;;;;11.90;5.18;;;3.60;99.90;;;;;;4952564;28;87942;-80
2023/12/18 03:18:41;;;;;;;10.13;5.22;;;3.50;99.90;;;;;;4935746;28;87382;-81
2023/12/18 03:21:10;;;;;;;10.88;5.40;;;3.50;99.90;;;;;;4953811;28;88441;-78
2023/12/18 03:23:36;;;;;;;13.30;6.22;;;3.50;99.90;;;;;;4934015;28;95364;-78
2023/12/18 03:26:02;;;;;;;9.68;6.22;;;3.50;99.90;;;;;;4950317;28;89357;-80
2023/12/18 03:28:28;;;;;;;9.13;5.05;;;3.40;99.90;;;;;;4934319;28;87657;-77
2023/12/18 03:30:53;;;;;;;13.57;5.38;;;3.30;99.90;;;;;;4933788;28;89782;-77
2023/12/18 03:33:19;;;;;;;10.88;5.22;;;3.30;99.90;;;;;;4951972;28;87266;-75
2023/12/18 03:35:45;;;;;;;13.40;6.50;;;3.30;99.90;;;;;;4934868;28;90431;-76
2023/12/18 03:38:12;;;;;;;12.70;5.68;;;3.20;99.90;;;;;;4934521;28;88817;-77
2023/12/18 03:40:38;;;;;;;11.38;5.25;;;3.20;99.90;;;;;;4952088;28;86417;-77
2023/12/18 03:43:04;;;;;;;16.15;6.40;;;3.40;99.90;;;;;;4934359;28;91344;-77
2023/12/18 03:45:30;;;;;;;14.25;5.72;;;3.50;99.90;;;;;;4952715;28;88390;-82
2023/12/18 03:47:56;;;;;;;11.55;5.40;;;3.60;99.90;;;;;;4933951;28;88492;-83
2023/12/18 03:50:21;;;;;;;11.60;5.43;;;3.60;99.90;;;;;;4951194;28;87111;-79
2023/12/18 03:52:47;;;;;;;13.02;5.88;;;3.70;99.90;;;;;;4932646;28;90364;-81
2023/12/18 03:55:13;;;;;;;12.60;5.53;;;3.70;99.90;;;;;;4951377;28;88180;-77
2023/12/18 03:57:39;;;;;;;13.63;5.97;;;3.80;99.90;;;;;;4937226;28;87833;-80
2023/12/18 04:00:06;;;;;;;14.02;5.95;;;3.80;99.90;;;;;;4951328;28;87538;-78
2023/12/18 04:02:31;;;;;;;14.15;6.40;;;3.80;99.90;;;;;;4933762;28;93023;-79
2023/12/18 04:04:57;;;;;;;14.88;7.35;;;3.90;99.90;;;;;;4934904;28;89504;-82
2023/12/18 04:07:23;;;;;;;17.30;7.75;;;3.90;99.90;;;;;;4934668;28;87853;-80
2023/12/18 04:09:48;;;;;;;16.90;7.53;;;4.00;99.90;;;;;;4935953;28;89057;-77
2023/12/18 04:12:14;;;;;;;14.75;7.00;;;4.00;99.90;;;;;;4932715;28;92188;-76
2023/12/18 04:14:42;;;;;;;15.13;7.45;;;4.10;99.90;;;;;;4933464;28;92050;-84
2023/12/18 04:17:08;;;;;;;14.00;7.75;;;4.30;99.90;;;;;;4932936;28;87662;-80
2023/12/18 04:19:34;;;;;;;16.70;8.23;;;4.30;99.90;;;;;;4933310;28;90302;-78
2023/12/18 04:21:59;;;;;;;23.80;8.23;;;4.40;99.90;;;;;;4952979;28;88783;-77
2023/12/18 04:24:25;;;;;;;17.85;8.50;;;4.50;99.90;;;;;;4953686;28;88072;-79
2023/12/18 04:26:51;;;;;;;18.38;8.73;;;4.60;99.90;;;;;;4951968;28;91046;-81
2023/12/18 04:29:17;;;;;;;17.52;9.27;;;4.70;99.90;;;;;;4952735;28;86924;-78
2023/12/18 04:31:43;;;;;;;21.27;9.85;;;4.70;99.90;;;;;;4951041;28;88239;-78
2023/12/18 04:34:08;;;;;;;20.35;9.88;;;4.80;99.90;;;;;;4917540;28;88964;-78
2023/12/18 04:36:38;;;;;;;20.80;10.27;;;4.80;99.90;;;;;;4938003;28;88589;-79
2023/12/18 04:39:04;;;;;;;17.33;9.95;;;4.90;99.90;;;;;;4954108;28;87742;-80
2023/12/18 04:41:30;;;;;;;22.42;10.50;;;4.90;99.90;;;;;;4954419;28;87911;-81
2023/12/18 04:43:56;;;;;;;21.85;10.48;;;5.00;99.90;;;;;;4954035;28;90793;-79
2023/12/18 04:46:21;;;;;;;22.35;9.90;;;5.10;99.90;;;;;;4936281;28;87768;-80
2023/12/18 04:48:47;;;;;;;25.02;12.30;;;5.20;99.90;;;;;;4938193;28;90718;-75
2023/12/18 04:51:12;;;;;;;22.00;11.02;;;5.20;99.90;;;;;;4937360;28;91167;-83
2023/12/18 04:53:40;;;;;;;21.05;9.95;;;5.30;99.90;;;;;;4955480;28;88503;-78
2023/12/18 04:56:06;;;;;;;23.60;10.35;;;5.40;99.90;;;;;;4955553;28;87157;-77
2023/12/18 04:58:34;;;;;;;31.85;13.27;;;5.50;99.90;;;;;;4954875;28;88081;-79
2023/12/18 05:01:00;;;;;;;22.95;11.20;;;5.60;99.90;;;;;;4953513;28;89639;-77
2023/12/18 05:03:26;;;;;;;30.00;12.23;;;5.60;99.90;;;;;;4937353;28;92453;-76
2023/12/18 05:05:52;;;;;;;24.25;11.93;;;5.60;99.90;;;;;;4953473;28;87126;-79
2023/12/18 05:08:18;;;;;;;30.23;12.82;;;5.70;99.90;;;;;;4936460;28;90020;-78
2023/12/18 05:10:44;;;;;;;32.53;13.65;;;5.70;99.90;;;;;;4934961;28;91772;-84
2023/12/18 05:13:11;;;;;;;30.58;16.17;;;5.70;99.90;;;;;;4952787;28;88138;-81
2023/12/18 05:15:37;;;;;;;34.55;16.10;;;5.60;99.90;;;;;;4953379;28;87177;-78
2023/12/18 05:18:05;;;;;;;32.03;15.05;;;5.50;99.90;;;;;;4952492;28;86662;-85
2023/12/18 05:20:30;;;;;;;41.75;16.00;;;5.50;99.90;;;;;;4932919;28;91875;-76
2023/12/18 05:22:56;;;;;;;32.50;16.15;;;5.40;99.90;;;;;;4934514;28;90788;-77
2023/12/18 05:25:22;;;;;;;34.58;16.55;;;5.50;99.90;;;;;;4934657;28;88236;-77
2023/12/18 05:27:47;;;;;;;34.80;16.10;;;5.50;99.90;;;;;;4955165;28;87335;-76
2023/12/18 05:30:13;;;;;;;36.28;16.83;;;5.50;99.90;;;;;;4953682;28;87917;-80
2023/12/18 05:32:39;;;;;;;33.38;15.57;;;5.60;99.90;;;;;;4936970;28;90432;-79
2023/12/18 05:35:05;;;;;;;33.35;16.13;;;5.60;99.90;;;;;;4936375;28;87655;-76
2023/12/18 05:37:30;;;;;;;36.80;15.93;;;5.60;99.90;;;;;;4935853;28;95593;-81
2023/12/18 05:39:56;;;;;;;41.25;17.52;;;5.60;99.90;;;;;;4935681;28;91935;-80
2023/12/18 05:42:22;;;;;;;37.92;17.02;;;5.70;99.90;;;;;;4934911;28;90197;-83
2023/12/18 05:44:47;;;;;;;39.88;17.63;;;5.70;99.90;;;;;;4935504;28;88108;-80
2023/12/18 05:47:13;;;;;;;42.50;17.73;;;5.70;99.90;;;;;;4932528;28;89431;-84
2023/12/18 05:49:39;;;;;;;37.88;18.33;;;5.70;99.90;;;;;;4934678;28;92988;-77
2023/12/18 05:52:05;;;;;;;47.97;17.35;;;5.70;99.90;;;;;;4933034;28;91790;-79
2023/12/18 05:54:31;;;;;;;43.35;17.38;;;5.70;99.90;;;;;;4934668;28;87175;-80
2023/12/18 05:56:57;;;;;;;43.45;17.48;;;5.70;99.90;;;;;;4952773;28;87155;-80
2023/12/18 05:59:23;;;;;;;40.97;17.20;;;5.80;99.90;;;;;;4934930;28;90060;-78
2023/12/18 06:01:49;;;;;;;42.33;17.90;;;5.80;99.90;;;;;;4932806;28;91415;-84
2023/12/18 06:04:14;;;;;;;45.88;19.35;;;5.90;99.90;;;;;;4952170;28;87150;-78
2023/12/18 06:06:40;;;;;;;42.28;18.45;;;5.90;99.90;;;;;;4934895;28;88975;-76
2023/12/18 06:09:06;;;;;;;36.05;17.33;;;5.90;99.90;;;;;;4934189;28;91811;-81
2023/12/18 06:11:33;;;;;;;43.85;18.10;;;6.00;99.90;;;;;;4933361;28;91830;-76
2023/12/18 06:13:59;;;;;;;44.70;18.48;;;6.00;99.90;;;;;;4950507;28;88374;-90
2023/12/18 06:16:25;;;;;;;40.13;18.17;;;6.00;99.90;;;;;;4935098;28;87552;-77
2023/12/18 06:18:50;;;;;;;39.80;17.40;;;6.00;99.90;;;;;;4934029;28;91354;-79
2023/12/18 06:21:16;;;;;;;41.45;18.38;;;6.00;99.90;;;;;;4934096;28;94250;-81
2023/12/18 06:23:43;;;;;;;37.97;18.10;;;6.00;99.90;;;;;;4934728;28;87281;-79
2023/12/18 06:26:09;;;;;;;35.42;16.33;;;6.00;99.90;;;;;;4934991;28;90865;-78
2023/12/18 06:28:35;;;;;;;40.65;17.20;;;6.10;99.90;;;;;;4934090;28;90582;-78
2023/12/18 06:31:01;;;;;;;40.35;17.40;;;6.10;99.90;;;;;;4952400;28;87524;-84
2023/12/18 06:33:26;;;;;;;54.53;20.63;;;6.00;99.90;;;;;;4952817;28;87136;-82
2023/12/18 06:35:54;;;;;;;38.75;15.95;;;6.00;99.90;;;;;;4935444;28;88121;-77
2023/12/18 06:38:20;;;;;;;45.83;18.23;;;6.00;99.90;;;;;;4951881;28;88993;-78
2023/12/18 06:40:45;;;;;;;41.67;16.90;;;6.00;99.90;;;;;;4952149;28;88658;-81
2023/12/18 06:43:11;;;;;;;41.80;17.63;;;6.00;99.90;;;;;;4934926;28;87395;-80
2023/12/18 06:45:37;;;;;;;39.33;17.33;;;6.10;99.90;;;;;;4935429;28;90554;-79
2023/12/18 06:48:03;;;;;;;47.88;18.75;;;6.10;99.90;;;;;;4933387;28;91246;-77
2023/12/18 06:50:29;;;;;;;43.38;17.25;;;6.10;99.90;;;;;;4951605;28;88500;-81
2023/12/18 06:52:55;;;;;;;47.03;16.63;;;6.00;99.90;;;;;;4951956;28;87318;-79
2023/12/18 06:55:21;;;;;;;47.28;16.90;;;5.90;99.90;;;;;;4953023;28;86952;-78
2023/12/18 06:57:47;;;;;;;38.13;15.73;;;5.70;99.90;;;;;;4952963;28;89266;-80
2023/12/18 07:00:13;;;;;;;40.63;16.35;;;5.60;99.90;;;;;;4951808;28;87565;-77
2023/12/18 07:02:39;;;;;;;49.10;17.48;;;5.70;99.90;;;;;;4951445;28;88522;-80
2023/12/18 07:05:04;;;;;;;38.70;16.25;;;5.60;99.90;;;;;;4933599;28;90498;-81
2023/12/18 07:07:30;;;;;;;37.88;14.95;;;5.30;99.90;;;;;;4950291;28;87857;-82
2023/12/18 07:09:56;;;;;;;44.00;16.40;;;5.00;99.90;;;;;;4934337;28;90905;-79
2023/12/18 07:12:21;;;;;;;48.85;16.08;;;4.80;99.90;;;;;;4953109;28;87147;-80
2023/12/18 07:14:47;;;;;;;43.50;15.77;;;4.70;99.90;;;;;;4951586;28;87162;-83
2023/12/18 07:17:13;;;;;;;46.30;15.80;;;4.60;99.90;;;;;;4932376;28;91233;-83
2023/12/18 07:19:40;;;;;;;42.67;14.52;;;4.50;99.90;;;;;;4933326;28;91517;-80
2023/12/18 07:22:06;;;;;;;46.13;15.00;;;4.50;99.90;;;;;;4933292;28;87688;-83
2023/12/18 07:24:32;;;;;;;47.95;16.05;;;4.40;99.90;;;;;;4938178;28;90183;-79
2023/12/18 07:26:57;;;;;;;45.58;15.23;;;4.40;99.90;;;;;;4949653;28;89196;-80
2023/12/18 07:29:23;;;;;;;47.50;15.40;;;4.40;99.90;;;;;;4933277;28;92234;-81
2023/12/18 07:31:49;;;;;;;49.55;15.88;;;4.40;99.90;;;;;;4932230;28;87282;-84
2023/12/18 07:34:14;;;;;;;51.63;16.02;;;4.40;99.90;;;;;;4934850;28;89769;-84
2023/12/18 07:36:41;;;;;;;43.42;16.27;;;4.40;99.90;;;;;;4937104;28;90848;-80
2023/12/18 07:39:07;;;;;;;52.45;15.65;;;4.40;99.90;;;;;;4934765;28;91731;-81
2023/12/18 07:41:32;;;;;;;50.70;15.77;;;4.30;99.90;;;;;;4935888;28;87189;-79
2023/12/18 07:43:58;;;;;;;45.33;16.50;;;4.30;99.90;;;;;;4937359;28;90246;-76
2023/12/18 07:46:26;;;;;;;49.20;16.35;;;4.30;99.90;;;;;;4936986;28;91730;-82
2023/12/18 07:48:53;;;;;;;50.10;16.90;;;4.30;99.90;;;;;;4953081;28;88104;-78
2023/12/18 07:51:19;;;;;;;42.85;15.18;;;4.30;99.90;;;;;;4952794;28;88511;-78
2023/12/18 07:53:45;;;;;;;45.53;15.48;;;4.30;99.90;;;;;;4936395;28;89118;-81
2023/12/18 07:56:11;;;;;;;49.28;15.43;;;4.30;99.90;;;;;;4954213;28;88255;-80
2023/12/18 07:58:39;;;;;;;49.25;16.67;;;4.30;99.90;;;;;;4953198;28;87475;-87
2023/12/18 08:01:04;;;;;;;50.95;17.25;;;4.20;99.90;;;;;;4936888;28;87199;-80
2023/12/18 08:03:30;;;;;;;47.63;16.25;;;4.20;99.90;;;;;;4954740;28;87060;-81
2023/12/18 08:05:56;;;;;;;43.92;15.90;;;4.20;99.90;;;;;;4937143;28;91385;-77
2023/12/18 08:08:22;;;;;;;49.38;15.77;;;4.20;99.90;;;;;;4953943;28;87965;-76
2023/12/18 08:10:47;;;;;;;48.80;15.65;;;4.20;99.90;;;;;;4957672;28;87294;-76
2023/12/18 08:13:13;;;;;;;51.40;16.15;;;4.20;99.90;;;;;;4940489;28;88730;-79
2023/12/18 08:15:39;;;;;;;43.20;16.08;;;4.20;99.90;;;;;;4942031;28;92700;-82
2023/12/18 08:18:05;;;;;;;49.65;17.40;;;4.20;99.90;;;;;;4956026;28;87932;-80
2023/12/18 08:20:31;;;;;;;51.63;15.57;;;4.20;99.90;;;;;;4937617;28;87159;-81
2023/12/18 08:22:57;;;;;;;45.90;15.82;;;4.20;99.90;;;;;;4940816;28;89737;-80
2023/12/18 08:25:24;;;;;;;45.22;16.08;;;4.20;99.90;;;;;;4940243;28;90925;-87
2023/12/18 08:27:50;;;;;;;44.08;15.88;;;4.20;99.90;;;;;;4936194;28;89757;-78
2023/12/18 08:30:16;;;;;;;42.78;14.30;;;4.20;99.90;;;;;;4934484;28;91603;-84
2023/12/18 08:32:42;;;;;;;45.95;16.27;;;4.20;99.90;;;;;;4933939;28;90271;-82
2023/12/18 08:35:08;;;;;;;42.20;14.68;;;4.20;99.90;;;;;;4934697;28;91165;-78
2023/12/18 08:37:33;;;;;;;44.30;15.50;;;4.20;99.90;;;;;;4951849;28;88000;-76
2023/12/18 08:39:59;;;;;;;44.92;15.68;;;4.30;99.90;;;;;;4932248;28;88112;-82
2023/12/18 08:42:25;;;;;;;43.78;15.25;;;4.30;99.90;;;;;;4953337;28;87172;-82
2023/12/18 08:44:51;;;;;;;41.17;15.25;;;4.20;99.90;;;;;;4951402;28;87660;-80
2023/12/18 08:47:17;;;;;;;44.75;14.77;;;4.30;99.90;;;;;;4933199;28;91075;-77
2023/12/18 08:49:42;;;;;;;38.00;14.55;;;4.30;99.90;;;;;;4950829;28;87224;-78
2023/12/18 08:52:08;;;;;;;40.90;14.77;;;4.30;99.90;;;;;;4952700;28;87759;-83
2023/12/18 08:54:34;;;;;;;42.92;14.52;;;4.30;99.90;;;;;;4955024;28;88254;-80
2023/12/18 08:56:59;;;;;;;40.30;14.82;;;4.40;99.90;;;;;;4954771;28;87173;-79
2023/12/18 08:59:25;;;;;;;38.17;13.52;;;4.30;99.90;;;;;;4954986;28;87128;-81
2023/12/18 09:01:51;;;;;;;33.42;12.75;;;4.40;99.90;;;;;;5037638;22;90302;-78
2023/12/18 09:04:17;;;;;;;36.35;13.90;;;4.40;99.90;;;;;;4950150;28;92116;-78
2023/12/18 09:06:43;;;;;;;35.45;14.32;;;4.40;99.90;;;;;;4938672;28;92981;-79
2023/12/18 09:09:09;;;;;;;32.10;13.05;;;4.40;99.90;;;;;;4942535;28;88642;-78
2023/12/18 09:11:35;;;;;;;32.95;13.68;;;4.40;99.90;;;;;;4947360;28;90181;-78
2023/12/18 09:14:04;;;;;;;39.72;14.20;;;4.50;99.90;;;;;;4948268;28;92217;-78
2023/12/18 09:16:30;;;;;;;36.92;13.93;;;4.40;99.90;;;;;;4964674;28;89931;-77
2023/12/18 09:18:56;;;;;;;39.50;14.85;;;4.40;99.90;;;;;;4947802;28;90969;-78
2023/12/18 09:21:22;;;;;;;29.70;13.57;;;4.40;99.90;;;;;;4965688;28;87609;-79
2023/12/18 09:23:49;;;;;;;32.80;13.93;;;4.40;99.90;;;;;;4966453;28;89100;-79
2023/12/18 09:26:15;;;;;;;32.08;13.63;;;4.40;99.90;;;;;;4948094;28;91421;-79
2023/12/18 09:28:42;;;;;;;33.65;13.25;;;4.40;99.90;;;;;;4940208;28;91504;-78
2023/12/18 09:31:08;;;;;;;32.75;14.38;;;4.40;99.90;;;;;;4964761;28;87807;-79
2023/12/18 09:33:33;;;;;;;33.88;14.15;;;4.40;99.90;;;;;;4953590;28;90906;-77
2023/12/18 09:36:00;;;;;;;36.72;15.73;;;4.40;99.90;;;;;;4966126;28;91404;-80
2023/12/18 09:41:47;;;;;;;38.47;15.40;;;4.50;99.90;;;;;;4981699;28;86801;-79
2023/12/18 09:44:19;;;;;;;36.80;15.45;;;4.50;99.90;;;;;;4967212;28;91879;-79
2023/12/18 09:46:45;;;;;;;41.42;16.58;;;4.40;99.90;;;;;;4970384;28;90137;-79
2023/12/18 09:59:36;;;;;;;38.75;15.60;;;4.40;99.90;;;;;;4963036;28;88080;-75
2023/12/18 10:02:12;;;;;;;31.88;15.32;;;4.40;99.90;;;;;;4963693;28;87192;-78
2023/12/18 10:04:41;;;;;;;29.70;13.60;;;4.40;99.90;;;;;;4963530;28;90046;-76
2023/12/18 10:11:04;;;;;;;31.80;14.23;;;4.40;99.90;;;;;;4979896;28;87520;-76
2023/12/18 10:13:29;;;;;;;30.48;13.40;;;4.50;99.90;;;;;;4963081;28;87618;-76
2023/12/18 10:19:52;;;;;;;31.10;13.07;;;4.50;99.90;;;;;;4962037;28;87244;-76
2023/12/18 10:22:18;;;;;;;31.92;13.18;;;4.60;99.90;;;;;;4979120;28;87911;-77
2023/12/18 10:24:58;;;;;;;30.05;12.82;;;4.50;99.90;;;;;;4964073;28;88006;-77
2023/12/18 10:27:32;;;;;;;30.42;13.15;;;4.50;99.90;;;;;;4964008;28;93242;-77
2023/12/18 10:29:58;;;;;;;27.85;11.88;;;4.60;99.90;;;;;;4964051;28;90220;-76
2023/12/18 10:32:29;;;;;;;27.80;12.38;;;4.50;99.90;;;;;;4980843;28;88068;-76
2023/12/18 10:34:55;;;;;;;27.17;12.73;;;4.50;99.90;;;;;;4963276;28;87004;-76
2023/12/18 10:37:25;;;;;;;26.60;12.70;;;4.50;99.90;;;;;;4980170;28;89106;-76
2023/12/18 10:40:06;;;;;;;26.52;12.43;;;4.50;99.90;;;;;;4982041;28;88450;-75
2023/12/18 10:42:36;;;;;;;24.38;10.73;;;4.50;99.90;;;;;;4979626;28;87957;-76
2023/12/18 10:45:08;;;;;;;26.35;11.57;;;4.60;99.90;;;;;;4978947;28;87082;-76
2023/12/18 10:47:34;;;;;;;25.90;10.60;;;4.60;99.90;;;;;;4980587;28;87197;-76
2023/12/18 10:50:17;;;;;;;27.95;11.60;;;4.60;99.90;;;;;;4960253;28;90747;-76
2023/12/18 10:52:46;;;;;;;25.20;11.07;;;4.60;99.90;;;;;;4980454;28;87919;-76
2023/12/18 10:58:38;;;;;;;25.67;10.52;;;4.60;99.90;;;;;;4978186;28;87084;-76
2023/12/18 11:01:07;;;;;;;27.42;11.57;;;4.70;99.90;;;;;;4959758;28;89803;-77
2023/12/18 11:03:35;;;;;;;19.73;10.40;;;4.70;99.90;;;;;;4963825;28;89341;-76
2023/12/18 11:06:38;;;;;;;20.80;9.80;;;4.60;99.90;;;;;;4981127;28;87470;-77
2023/12/18 11:09:04;;;;;;;24.30;9.98;;;4.60;99.90;;;;;;4962673;28;87422;-77
2023/12/18 11:11:31;;;;;;;23.55;11.43;;;4.60;99.90;;;;;;4962616;28;91094;-77
2023/12/18 11:21:11;;;;;;;22.85;10.77;;;4.60;99.90;;;;;;4976325;28;87039;-77
2023/12/18 11:23:39;;;;;;;21.77;9.85;;;4.60;99.90;;;;;;4980233;28;88649;-77
2023/12/18 11:32:51;;;;;;;22.20;10.07;;;4.70;99.90;;;;;;4974293;28;87069;-77
2023/12/18 11:35:43;;;;;;;22.83;10.55;;;4.70;99.90;;;;;;4962336;28;91410;-77
2023/12/18 11:38:19;;;;;;;25.10;10.98;;;4.70;99.90;;;;;;4962127;28;89536;-78
2023/12/18 11:40:56;;;;;;;26.40;11.65;;;4.70;99.90;;;;;;4959960;28;87517;-77
2023/12/18 11:43:41;;;;;;;21.17;11.35;;;4.70;99.90;;;;;;4976287;28;87655;-79
2023/12/18 11:46:12;;;;;;;23.75;11.60;;;4.70;99.90;;;;;;4967644;28;91296;-77
2023/12/18 11:48:57;;;;;;;26.92;11.43;;;4.70;99.90;;;;;;4966658;28;92332;-76
2023/12/18 11:51:24;;;;;;;25.80;11.85;;;4.70;99.90;;;;;;4984388;28;86969;-77
2023/12/18 11:54:02;;;;;;;24.55;11.82;;;4.70;99.90;;;;;;4983019;28;87344;-75
2023/12/18 11:56:37;;;;;;;27.10;12.00;;;4.70;99.90;;;;;;4974825;28;87959;-76
2023/12/18 11:59:02;;;;;;;23.60;10.60;;;4.70;99.90;;;;;;4958310;28;89849;-76
2023/12/18 12:01:50;;;;;;;23.42;10.98;;;4.70;99.90;;;;;;4964343;28;88348;-77
2023/12/18 12:04:56;;;;;;;26.10;11.13;;;4.70;99.90;;;;;;4984474;28;87416;-77
2023/12/18 12:07:22;;;;;;;22.75;10.75;;;4.70;99.90;;;;;;4967182;28;88110;-77
2023/12/18 12:09:58;;;;;;;22.67;11.05;;;4.70;99.90;;;;;;4982979;28;88611;-76
2023/12/18 12:12:24;;;;;;;22.33;11.00;;;4.60;99.90;;;;;;4964773;28;90090;-76
2023/12/18 12:14:50;;;;;;;21.25;11.10;;;4.60;99.90;;;;;;4964065;28;87863;-76
2023/12/18 12:17:21;;;;;;;26.88;10.73;;;4.60;99.90;;;;;;4982111;28;87865;-76
2023/12/18 12:19:47;;;;;;;21.85;10.57;;;4.60;99.90;;;;;;4964816;28;91477;-77
2023/12/18 12:22:13;;;;;;;22.27;10.10;;;4.60;99.90;;;;;;4981911;28;86827;-77
2023/12/18 12:25:13;;;;;;;23.48;10.95;;;4.60;99.90;;;;;;4965112;28;88099;-77
2023/12/18 12:27:39;;;;;;;23.50;10.02;;;4.60;99.90;;;;;;4964206;28;91599;-76
2023/12/18 12:30:12;;;;;;;26.35;11.18;;;4.60;99.90;;;;;;4981612;28;87853;-78
2023/12/18 12:33:03;;;;;;;20.23;10.10;;;4.60;99.90;;;;;;4984064;28;87027;-77
2023/12/18 12:35:33;;;;;;;21.40;9.85;;;4.70;99.90;;;;;;4979215;28;88788;-77
2023/12/18 12:38:17;;;;;;;23.85;10.75;;;4.60;99.90;;;;;;4963690;28;92301;-78
2023/12/18 12:40:45;;;;;;;18.80;9.65;;;4.60;99.90;;;;;;4977711;28;89557;-77
2023/12/18 13:17:12;;;;;;;22.50;10.63;;;4.60;99.90;;;;;;4977763;22;88860;-78
2023/12/18 13:19:38;;;;;;;21.63;10.07;;;4.60;99.90;;;;;;4949235;28;89560;-78
2023/12/18 13:22:43;;;;;;;22.67;9.63;;;4.60;99.90;;;;;;4946011;28;90829;-78
2023/12/18 13:25:08;;;;;;;21.48;10.25;;;4.60;99.90;;;;;;4944691;28;87124;-78
2023/12/18 13:34:48;;;;;;;21.50;10.80;;;4.50;99.90;;;;;;4954163;28;87894;-78
2023/12/18 14:36:47;;;;;;;24.17;10.48;;;4.40;99.90;;;;;;5170729;22;89106;-74
2023/12/18 14:39:13;;;;;;;21.60;10.85;;;4.50;99.90;;;;;;4938465;28;87246;-82
2023/12/18 14:42:07;;;;;;;24.17;9.95;;;4.40;99.90;;;;;;4924565;28;89297;-83
2023/12/18 14:44:34;;;;;;;21.02;10.23;;;4.40;99.90;;;;;;4935879;28;92869;-83
2023/12/18 14:47:01;;;;;;;20.60;9.68;;;4.40;99.90;;;;;;4938945;28;90777;-82
2023/12/18 14:49:40;;;;;;;21.60;10.18;;;4.40;99.90;;;;;;4942652;28;88112;-83
2023/12/18 14:52:06;;;;;;;18.98;9.82;;;4.30;99.90;;;;;;4940597;28;90321;-79
2023/12/18 14:54:31;;;;;;;23.98;9.80;;;4.30;99.90;;;;;;4913795;28;88739;-80
2023/12/18 14:57:01;;;;;;;20.50;9.50;;;4.30;99.90;;;;;;4916294;28;91273;-79
2023/12/18 14:59:27;;;;;;;19.73;9.05;;;4.30;99.90;;;;;;4930411;28;87382;-81
2023/12/18 15:01:54;;;;;;;19.25;9.55;;;4.30;99.90;;;;;;4916746;28;90069;-79